x

Buoy A01 - Mass. Bay/stellwagen (44029) Wave Buoy

12:04pm - Tue 25th Jul 2017 All times are EDT. -4 hours from GMT.

  • Sig Wave height 6.6ft
  • Peak Period 8s
  • Wind
    16mph, 20mph gusts
  • Sea Temp 60°f
  • Air Temp 61°f
  • Sea Pressure 1018.8mb
  • Buoy A01 - Mass. Bay/stellwagen
  • Buoy A01 - Mass. Bay/stellwagen

More Historic Weather Station data

Upgrade to MSW Pro to gain access to the past 30 days of data for over 8000 Wavebouys and Weather Stations around the globe.

Join Pro

Comparision Forecast

View Surf forecast
   
Tue 07/25 12:04pm 6.5ft 8s 16 20 mph 1018.8mb 60f 61f
11:04am 6ft 8s 18 20 mph 1018.4mb 60f 61f
10:04am 5.5ft 8s 16 18 mph 1018.5mb 60f 60f
9:04am 5.5ft 8s 16 18 mph 1018.1mb 60f 59f
8:04am 6.5ft 8s 16 20 mph 1017.3mb 60f 60f
7:04am 6ft 8s 16 18 mph 1016.7mb 60f 59f
6:04am 7ft 8s 18 20 mph 1016.1mb 60f 59f
5:04am 7.5ft 8s 18 20 mph 1015.1mb 60f 60f
4:04am 7ft 8s 16 20 mph 1014.8mb 59f 59f
3:04am 8.5ft 8s 18 22 mph 1014.1mb 60f 58f
2:04am 9ft 8s 22 27 mph 1014.1mb 59f 58f
1:04am 9.5ft 8s 20 25 mph 1014mb 60f 60f
12:04am 8ft 8s 20 25 mph 1013.6mb 60f 59f
Mon 07/24 11:04pm 8.5ft 8s 20 25 mph 1012.9mb 60f 59f
10:04pm 8ft 6s 20 22 mph 1012.7mb 60f 59f
9:04pm 7.5ft 6s 22 27 mph 1012.3mb 60f 60f
8:04pm 8ft 6s 25 29 mph 1011.6mb 61f 60f
7:04pm 8ft 6s 27 34 mph 1011.2mb 62f 60f
6:04pm 7ft 6s 27 34 mph 1011.2mb 62f 60f
5:04pm 6ft 6s 27
mph
1011mb 62f 59f
4:04pm 6ft 6s 29
mph
1011mb 62f 58f
3:04pm 6.5ft 6s 27 31 mph 1011.3mb 63f 58f
2:04pm 5ft 5s 25 31 mph 1011.6mb 63f 59f
1:04pm 4.5ft 5s 22 27 mph 1011.9mb 64f 59f
12:04pm 4.5ft 5s 20 29 mph 1012.6mb 64f 63f
11:04am 3ft 5s 20 27 mph 1013.5mb 64f 63f
10:04am 3.5ft 5s 16 20 mph 1013.3mb 64f 64f
9:04am 2ft 4s 16 20 mph 1013.8mb 64f 65f
8:04am 1.6ft 5s 13 18 mph 1013.7mb 64f 65f
7:04am 1.6ft 5s 11 13 mph 1013.7mb 65f 65f
6:04am 1.6ft 8s 9 11 mph 1013.3mb 65f 65f
5:04am 1.6ft 5s 9 9 mph 1013.2mb 65f 65f
4:04am 1.6ft 5s 7 7 mph 1013.5mb 64f 65f
3:04am 1.6ft 8s 4 4 mph 1013mb 65f 65f
2:04am 1.6ft 5s 4 4 mph 1013.2mb 65f 65f
1:04am 2ft 5s 7 9 mph 1013.3mb 65f 65f
12:04am 2.5ft 5s 7 7 mph 1013mb 65f 65f
Sun 07/23 11:04pm 2.5ft 5s 7 9 mph 1012.8mb 65f 65f
10:04pm 2.5ft 5s 7 9 mph 1013mb 65f 65f
9:04pm 2.5ft 5s 7 9 mph 1012.7mb 65f 65f
8:04pm 2.5ft 5s 7 9 mph 1012.4mb 65f 65f
7:04pm 2.5ft 5s 4 7 mph 1012.4mb 65f 66f
6:04pm 3ft 5s 7 7 mph 1012.4mb 65f 66f
5:04pm 3.5ft 6s 9 11 mph 1011.9mb 65f 66f
4:04pm 3.5ft 6s 11 13 mph 1011.6mb 65f 66f
3:04pm 3.5ft 6s 9 11 mph 1011.9mb 65f 66f
2:04pm 4ft 6s 9 11 mph 1011.9mb 64f 65f
1:04pm 4.5ft 6s 11 13 mph 1011.8mb 64f 65f
12:04pm 4.5ft 6s 11 13 mph 1011.6mb 64f 65f
11:04am 5ft 6s 13 16 mph 1011mb 64f 65f
10:04am 5ft 6s 13 16 mph 1010.9mb 65f 65f
9:04am 5ft 6s 16 18 mph 1010.2mb 65f 66f
8:04am 4.5ft 5s 18 20 mph 1009.5mb 65f 67f
7:04am 4.5ft 5s 16 20 mph 1009.1mb 65f 67f
6:04am 3.5ft 4s 20 27 mph 1008.3mb 65f 67f
5:04am 3ft 4s 25 29 mph 1007.5mb 64f 68f
4:04am 2ft 3s 22 25 mph 1007.1mb 65f 69f
3:04am 1.3ft 8s 16 18 mph 1006.6mb 64f 69f
2:04am 1ft 10s 4 4 mph 1006.9mb 64f 69f
1:04am 1.3ft 11s 7 7 mph 1007.4mb 65f 69f
12:04am 1ft 6s 7 7 mph 1007.5mb 65f 69f
Sat 07/22 11:04pm 0.7ft  -  2 4 mph 1007.4mb 65f 70f
10:04pm 1ft 6s 4 7 mph 1007.1mb 64f 70f
9:04pm 1ft 11s 9 9 mph 1007.2mb 66f 71f
8:04pm 1ft 6s 9 9 mph 1007.7mb 65f 70f
7:04pm 1ft 6s 9 11 mph 1007.7mb 65f 71f
6:04pm 1.3ft 11s 7 9 mph 1008.3mb 63f 72f
5:04pm 0.7ft  -  4 7 mph 1008.5mb 66f 71f
4:04pm 1.3ft 11s 7 7 mph 1008.7mb 65f 72f
3:04pm 0.7ft  -  4 4 mph 1009.4mb 65f 71f
2:04pm 1ft 6s 4 4 mph 1009.7mb 65f 70f
1:04pm 1ft 5s 4 4 mph 1009.9mb 65f 70f
12:04pm 1.3ft 11s 4 7 mph 1010mb 65f 69f
11:04am 0.7ft  -  4 7 mph 1010.2mb 65f 69f
10:04am 1ft 5s 4 4 mph 1010.3mb 65f 68f
9:04am 1.3ft 5s 4 4 mph 1010.7mb 65f 67f
8:04am 0.7ft  -  7 7 mph 1010.6mb 65f 67f
7:04am 1.3ft 11s 7 7 mph 1010.1mb 64f 67f
6:04am 1.3ft 11s 7 7 mph 1009.3mb 64f 68f
5:04am 1ft 6s 7 9 mph 1009.3mb 63f 67f
4:04am 0.7ft  -  7 9 mph 1009.1mb 63f 68f
3:04am 0.7ft  -  9 11 mph 1008.9mb 63f 69f
2:04am 0.7ft  -  11 11 mph 1008.6mb 62f 69f
1:04am 1.3ft 11s 13 13 mph 1008.6mb 59f 71f
12:04am 1ft 6s 7 9 mph 1008.4mb 63f 70f
Fri 07/21 11:04pm 1ft 6s 7 7 mph 1008.1mb 63f 70f
10:04pm 1ft 6s 9 9 mph 1008.2mb 67f 73f
9:04pm 1.3ft 6s 7 9 mph 1008mb 67f 73f
8:04pm 1ft 6s 9 9 mph 1007.4mb 67f 72f
7:04pm 1.3ft 6s 11 13 mph 1007.2mb 66f 74f
6:04pm 1.3ft 6s 11 11 mph 1007.4mb 66f 74f